createdAt,value
2018-02-08T00:02:18.272Z,84.70
2018-02-08T00:04:47.221Z,83.50
2018-02-08T00:07:15.339Z,83.50
2018-02-08T00:09:44.235Z,83.80
2018-02-08T00:12:13.205Z,83.60
2018-02-08T00:14:41.328Z,83.60
2018-02-08T00:17:09.605Z,84.10
2018-02-08T00:19:37.764Z,84.30
2018-02-08T00:22:06.672Z,83.90
2018-02-08T00:24:34.790Z,84.10
2018-02-08T00:27:02.917Z,84.40
2018-02-08T00:29:31.076Z,84.70
2018-02-08T00:31:59.264Z,84.00
2018-02-08T00:34:27.402Z,84.90
2018-02-08T00:36:55.519Z,85.30
2018-02-08T00:39:23.752Z,85.80
2018-02-08T00:41:51.906Z,85.50
2018-02-08T00:44:20.027Z,85.20
2018-02-08T00:46:48.167Z,83.90
2018-02-08T00:49:16.308Z,85.90
2018-02-08T00:51:44.453Z,85.30
2018-02-08T00:54:12.627Z,85.60
2018-02-08T00:56:41.479Z,85.90
2018-02-08T00:59:09.612Z,85.80
2018-02-08T01:01:37.740Z,86.10
2018-02-08T01:04:06.655Z,86.30
2018-02-08T01:06:34.774Z,86.10
2018-02-08T01:09:02.919Z,86.80
2018-02-08T01:11:31.061Z,86.70
2018-02-08T01:13:59.195Z,86.60
2018-02-08T01:16:27.322Z,86.60
2018-02-08T01:18:55.493Z,86.80
2018-02-08T01:21:23.614Z,86.80
2018-02-08T01:23:51.211Z,87.30
2018-02-08T01:26:18.816Z,87.30
2018-02-08T01:28:46.959Z,87.00
2018-02-08T01:31:15.111Z,86.40
2018-02-08T01:33:44.019Z,86.50
2018-02-08T01:36:12.159Z,86.50
2018-02-08T01:38:40.288Z,86.50
2018-02-08T01:41:08.440Z,86.70
2018-02-08T01:43:36.627Z,86.50
2018-02-08T01:46:05.697Z,86.60
2018-02-08T01:48:34.615Z,86.30
2018-02-08T01:51:02.747Z,86.30
2018-02-08T01:53:30.871Z,86.30
2018-02-08T01:55:59.011Z,85.90
2018-02-08T01:58:27.898Z,86.10
2018-02-08T02:00:56.903Z,85.30
2018-02-08T02:03:25.044Z,84.90
2018-02-08T02:05:53.180Z,83.80
2018-02-08T02:08:21.323Z,84.80
2018-02-08T02:10:49.448Z,83.60
2018-02-08T02:13:17.587Z,83.50
2018-02-08T02:15:45.730Z,83.10
2018-02-08T02:18:14.626Z,83.30
2018-02-08T02:20:43.537Z,83.80
2018-02-08T02:23:11.669Z,83.90
2018-02-08T02:25:39.790Z,84.30
2018-02-08T02:28:07.944Z,84.40
2018-02-08T02:30:36.849Z,84.30
2018-02-08T02:33:04.972Z,84.30
2018-02-08T02:35:33.104Z,84.50
2018-02-08T02:38:01.240Z,84.80
2018-02-08T02:40:30.212Z,85.10
2018-02-08T02:42:58.365Z,85.70
2018-02-08T02:45:26.474Z,85.90
2018-02-08T02:47:55.595Z,86.10
2018-02-08T02:50:24.512Z,85.90
2018-02-08T02:52:52.924Z,86.00
2018-02-08T02:55:21.078Z,85.70
2018-02-08T02:57:49.235Z,85.60
2018-02-08T03:00:17.376Z,85.70
2018-02-08T03:02:46.268Z,86.00
2018-02-08T03:05:15.172Z,86.00
2018-02-08T03:07:43.303Z,86.00
2018-02-08T03:10:11.443Z,86.00
2018-02-08T03:12:39.579Z,85.70
2018-02-08T03:15:08.528Z,86.60
2018-02-08T03:17:36.643Z,85.70
2018-02-08T03:20:05.561Z,85.60
2018-02-08T03:22:33.678Z,85.60
2018-02-08T03:25:01.815Z,85.60
2018-02-08T03:27:29.955Z,85.80
2018-02-08T03:29:58.903Z,86.10
2018-02-08T03:32:27.042Z,86.10
2018-02-08T03:34:55.160Z,85.40
2018-02-08T03:37:23.317Z,84.90
2018-02-08T03:39:51.457Z,85.20
2018-02-08T03:42:19.580Z,84.90
2018-02-08T03:44:47.724Z,85.00
2018-02-08T03:47:15.863Z,85.70
2018-02-08T03:49:44.749Z,85.60
2018-02-08T03:52:14.074Z,85.40
2018-02-08T03:54:42.196Z,85.40
2018-02-08T03:57:10.333Z,85.40
2018-02-08T03:59:38.523Z,85.30
2018-02-08T04:02:06.639Z,85.70
2018-02-08T04:04:35.535Z,86.20
2018-02-08T04:07:04.581Z,86.00
2018-02-08T04:09:32.700Z,86.00
2018-02-08T04:12:01.595Z,86.40
2018-02-08T04:14:31.022Z,86.10
2018-02-08T04:17:00.048Z,86.40
2018-02-08T04:19:28.158Z,86.20
2018-02-08T04:21:57.101Z,87.00
2018-02-08T04:24:25.262Z,86.40
2018-02-08T04:26:53.411Z,86.30
2018-02-08T04:29:21.647Z,86.30
2018-02-08T04:31:49.772Z,86.30
2018-02-08T04:34:17.895Z,86.40
2018-02-08T04:36:46.060Z,86.10
2018-02-08T04:39:26.037Z,86.60
2018-02-08T04:42:06.122Z,86.60
2018-02-08T04:44:46.206Z,86.80
2018-02-08T04:47:28.460Z,87.50
2018-02-08T04:49:57.349Z,87.80
2018-02-08T04:52:26.239Z,88.10
2018-02-08T04:54:55.897Z,87.90
2018-02-08T04:57:24.067Z,87.90
2018-02-08T04:59:52.196Z,88.40
2018-02-08T05:02:21.207Z,88.10
2018-02-08T05:04:49.339Z,88.00
2018-02-08T05:07:17.467Z,88.10
2018-02-08T05:09:45.965Z,88.10
2018-02-08T05:12:14.084Z,88.30
2018-02-08T05:14:42.211Z,88.60
2018-02-08T05:17:10.356Z,87.20
2018-02-08T05:19:38.484Z,86.80
2018-02-08T05:22:06.630Z,86.30
2018-02-08T05:24:35.110Z,86.80
2018-02-08T05:27:03.230Z,86.70
2018-02-08T05:29:31.354Z,86.80
2018-02-08T05:32:00.230Z,88.10
2018-02-08T05:34:28.369Z,88.00
2018-02-08T05:36:56.495Z,88.50
2018-02-08T05:39:24.957Z,88.30
2018-02-08T05:41:53.127Z,88.00
2018-02-08T05:44:21.260Z,88.00
2018-02-08T05:46:49.409Z,87.60
2018-02-08T05:49:17.532Z,86.70
2018-02-08T05:51:46.424Z,86.80
2018-02-08T05:54:15.348Z,86.70
2018-02-08T05:56:43.492Z,86.80
2018-02-08T05:59:11.653Z,86.30
2018-02-08T06:01:39.885Z,85.80
2018-02-08T06:04:08.020Z,87.00
2018-02-08T06:06:36.218Z,85.20
2018-02-08T06:09:04.600Z,85.70
2018-02-08T06:11:34.005Z,85.30
2018-02-08T06:14:02.301Z,86.00
2018-02-08T06:16:30.444Z,86.00
2018-02-08T06:18:58.599Z,86.20
2018-02-08T06:21:27.500Z,86.40
2018-02-08T06:23:56.683Z,86.40
2018-02-08T06:26:25.581Z,86.80
2018-02-08T06:28:53.711Z,86.70
2018-02-08T06:31:22.150Z,87.00
2018-02-08T06:33:50.282Z,87.20
2018-02-08T06:36:18.411Z,86.90
2018-02-08T06:38:47.352Z,85.10
2018-02-08T06:41:15.476Z,84.90
2018-02-08T06:43:43.608Z,84.30
2018-02-08T06:46:12.547Z,85.80
2018-02-08T06:48:40.688Z,85.60
2018-02-08T06:51:08.917Z,85.90
2018-02-08T06:53:37.099Z,85.70
2018-02-08T06:56:05.840Z,86.10
2018-02-08T06:58:33.979Z,85.90
2018-02-08T07:01:02.504Z,85.40
2018-02-08T07:03:30.628Z,85.30
2018-02-08T07:05:59.636Z,86.30
2018-02-08T07:08:29.150Z,85.70
2018-02-08T07:10:57.290Z,85.80
2018-02-08T07:13:25.415Z,83.80
2018-02-08T07:15:53.562Z,82.60
2018-02-08T07:18:21.704Z,84.30
2018-02-08T07:20:49.852Z,83.20
2018-02-08T07:23:18.693Z,82.90
2018-02-08T07:25:46.899Z,82.50
2018-02-08T07:28:15.020Z,83.40
2018-02-08T07:30:43.249Z,82.60
2018-02-08T07:33:11.368Z,83.10
2018-02-08T07:35:39.593Z,83.70
2018-02-08T07:38:07.780Z,83.40
2018-02-08T07:40:36.336Z,82.60
2018-02-08T07:43:05.213Z,82.50
2018-02-08T07:45:35.056Z,80.10
2018-02-08T07:48:03.239Z,80.00
2018-02-08T07:50:31.367Z,77.00
2018-02-08T07:52:59.491Z,74.00
2018-02-08T07:55:27.655Z,71.30
2018-02-08T07:57:55.796Z,69.30
2018-02-08T08:00:24.727Z,63.00
2018-02-08T08:02:52.888Z,62.80
2018-02-08T08:05:21.023Z,59.70
2018-02-08T08:07:50.028Z,56.80
2018-02-08T08:10:18.920Z,55.30
2018-02-08T08:12:47.863Z,52.20
2018-02-08T08:15:16.013Z,51.70
2018-02-08T08:17:45.411Z,50.40
2018-02-08T08:20:14.283Z,45.90
2018-02-08T08:22:43.265Z,43.30
2018-02-08T08:25:11.379Z,43.50
2018-02-08T08:27:39.493Z,41.00
2018-02-08T08:30:08.652Z,40.50
2018-02-08T08:32:36.816Z,38.90
2018-02-08T08:35:05.676Z,40.10
2018-02-08T08:37:34.681Z,41.20
2018-02-08T08:40:03.552Z,42.30
2018-02-08T08:42:32.533Z,42.30
2018-02-08T08:45:00.669Z,41.70
2018-02-08T08:47:28.792Z,41.30
2018-02-08T08:49:56.907Z,42.00
2018-02-08T08:52:25.082Z,42.40
2018-02-08T08:54:53.212Z,40.60
2018-02-08T08:57:21.335Z,41.70
2018-02-08T08:59:49.485Z,42.50
2018-02-08T09:02:18.413Z,42.40
2018-02-08T09:04:46.683Z,42.20
2018-02-08T09:07:15.149Z,39.90
2018-02-08T09:09:43.356Z,37.70
2018-02-08T09:12:11.496Z,36.00
2018-02-08T09:14:39.644Z,33.40
2018-02-08T09:17:08.552Z,35.00
2018-02-08T09:19:36.679Z,35.00
2018-02-08T09:22:05.109Z,34.90
2018-02-08T09:24:33.239Z,37.40
2018-02-08T09:27:01.359Z,35.70
2018-02-08T09:29:30.664Z,38.80
2018-02-08T09:31:58.794Z,38.60
2018-02-08T09:34:26.910Z,39.30
2018-02-08T09:36:55.156Z,38.70
2018-02-08T09:39:23.264Z,38.60
2018-02-08T09:41:51.438Z,38.90
2018-02-08T09:44:20.172Z,39.20
2018-02-08T09:46:49.087Z,41.30
2018-02-08T09:49:18.017Z,41.90
2018-02-08T09:51:46.199Z,40.40
2018-02-08T09:54:14.309Z,41.70
2018-02-08T09:56:42.424Z,41.00
2018-02-08T09:59:11.293Z,41.20
2018-02-08T10:01:40.305Z,38.50
2018-02-08T10:04:08.998Z,37.50
2018-02-08T10:06:39.116Z,39.40
2018-02-08T10:09:07.535Z,38.40
2018-02-08T10:11:35.663Z,37.20
2018-02-08T10:14:05.693Z,37.20
2018-02-08T10:16:33.811Z,37.30
2018-02-08T10:19:01.984Z,41.50
2018-02-08T10:21:30.236Z,40.80
2018-02-08T10:23:58.358Z,38.30
2018-02-08T10:26:27.283Z,38.80
2018-02-08T10:28:55.529Z,38.80
2018-02-08T10:31:23.668Z,37.40
2018-02-08T10:33:51.824Z,35.00
2018-02-08T10:36:20.278Z,33.60
2018-02-08T10:38:48.396Z,36.90
2018-02-08T10:41:16.553Z,34.40
2018-02-08T10:43:44.698Z,33.40
2018-02-08T10:46:12.826Z,33.30
2018-02-08T10:48:41.213Z,36.40
2018-02-08T10:51:10.011Z,39.40
2018-02-08T10:53:38.788Z,39.80
2018-02-08T10:56:06.918Z,41.80
2018-02-08T10:58:36.183Z,42.10
2018-02-08T11:01:04.308Z,42.10
2018-02-08T11:03:32.421Z,40.90
2018-02-08T11:06:01.329Z,40.70
2018-02-08T11:08:29.458Z,40.40
2018-02-08T11:10:57.685Z,37.20
2018-02-08T11:13:25.830Z,34.50
2018-02-08T11:15:54.751Z,37.10
2018-02-08T11:18:22.879Z,37.30
2018-02-08T11:20:51.041Z,36.10
2018-02-08T11:23:19.197Z,36.60
2018-02-08T11:25:47.329Z,36.50
2018-02-08T11:28:16.484Z,36.50
2018-02-08T11:30:44.632Z,35.80
2018-02-08T11:33:12.805Z,34.40
2018-02-08T11:35:40.943Z,32.70
2018-02-08T11:38:09.956Z,37.00
2018-02-08T11:40:38.072Z,37.00
2018-02-08T11:43:06.212Z,39.10
2018-02-08T11:45:34.327Z,35.30
2018-02-08T11:48:02.483Z,35.70
2018-02-08T11:50:30.645Z,37.30
2018-02-08T11:52:58.804Z,36.40
2018-02-08T11:55:26.919Z,37.50
2018-02-08T11:57:55.056Z,36.50
2018-02-08T12:00:24.203Z,36.30
2018-02-08T12:02:52.352Z,36.20
2018-02-08T12:05:20.787Z,36.00
2018-02-08T12:07:48.904Z,33.90
2018-02-08T12:10:17.058Z,35.70
2018-02-08T12:12:45.246Z,37.90
2018-02-08T12:15:13.368Z,34.70
2018-02-08T12:17:42.281Z,34.20
2018-02-08T12:20:10.501Z,34.20
2018-02-08T12:22:38.648Z,34.00
2018-02-08T12:25:06.772Z,33.20
2018-02-08T12:27:35.716Z,32.30
2018-02-08T12:30:03.854Z,32.30
2018-02-08T12:32:32.863Z,32.90
2018-02-08T12:35:01.039Z,33.10
2018-02-08T12:37:29.207Z,32.70
2018-02-08T12:39:57.360Z,32.80
2018-02-08T12:42:26.360Z,34.30
2018-02-08T12:44:54.512Z,34.30
2018-02-08T12:47:22.640Z,34.30
2018-02-08T12:49:50.816Z,32.80
2018-02-08T12:52:18.952Z,31.60
2018-02-08T12:54:47.969Z,32.60
2018-02-08T12:57:16.137Z,32.80
2018-02-08T12:59:45.106Z,31.70
2018-02-08T13:02:13.991Z,32.30
2018-02-08T13:04:42.126Z,32.30
2018-02-08T13:07:10.252Z,32.60
2018-02-08T13:09:39.135Z,31.90
2018-02-08T13:12:08.405Z,32.00
2018-02-08T13:14:36.511Z,30.50
2018-02-08T13:17:05.397Z,29.90
2018-02-08T13:19:34.320Z,31.20
2018-02-08T13:22:02.491Z,31.40
2018-02-08T13:24:30.609Z,31.60
2018-02-08T13:26:58.749Z,31.00
2018-02-08T13:29:27.792Z,31.30
2018-02-08T13:31:55.971Z,30.40
2018-02-08T13:34:24.860Z,31.50
2018-02-08T13:36:52.980Z,31.30
2018-02-08T13:39:22.080Z,31.10
2018-02-08T13:41:50.236Z,30.40
2018-02-08T13:44:18.370Z,32.50
2018-02-08T13:46:46.600Z,30.50
2018-02-08T13:52:40.692Z,29.90
2018-02-08T13:55:09.786Z,30.20
2018-02-08T13:57:40.738Z,32.10
2018-02-08T14:03:18.826Z,30.90
2018-02-08T14:05:47.336Z,30.10
2018-02-08T14:08:15.462Z,30.70
2018-02-08T14:10:43.595Z,30.80
2018-02-08T14:13:11.749Z,30.60
2018-02-08T14:15:39.900Z,30.40
2018-02-08T14:18:08.814Z,31.90
2018-02-08T14:20:36.956Z,31.70
2018-02-08T14:23:05.846Z,29.70
2018-02-08T14:25:34.057Z,29.60
2018-02-08T14:28:02.175Z,29.60
2018-02-08T14:30:30.510Z,30.20
2018-02-08T14:32:58.700Z,29.60
2018-02-08T14:35:26.824Z,29.60
2018-02-08T14:37:55.788Z,29.10
2018-02-08T14:40:23.917Z,28.80
2018-02-08T14:42:52.468Z,29.10
2018-02-08T14:45:20.589Z,29.10
2018-02-08T14:47:48.752Z,29.60
2018-02-08T14:50:16.926Z,28.80
2018-02-08T14:52:45.144Z,29.60
2018-02-08T14:55:13.712Z,28.10
2018-02-08T14:57:41.886Z,29.70
2018-02-08T15:00:10.009Z,31.30
2018-02-08T15:02:38.941Z,31.70
2018-02-08T15:05:07.203Z,31.20
2018-02-08T15:07:36.332Z,32.80
2018-02-08T15:10:04.473Z,32.40
2018-02-08T15:12:32.618Z,33.10
2018-02-08T15:15:01.557Z,34.10
2018-02-08T15:17:29.681Z,33.40
2018-02-08T15:19:58.624Z,34.40
2018-02-08T15:22:26.880Z,34.30
2018-02-08T15:24:55.761Z,33.70
2018-02-08T15:27:23.944Z,33.60
2018-02-08T15:29:52.096Z,35.60
2018-02-08T15:32:21.018Z,37.20
2018-02-08T15:34:50.003Z,37.90
2018-02-08T15:37:18.175Z,37.90
2018-02-08T15:39:46.353Z,37.50
2018-02-08T15:42:14.465Z,39.10
2018-02-08T15:44:42.910Z,38.30
2018-02-08T15:47:11.090Z,37.20
2018-02-08T15:49:39.245Z,37.70
2018-02-08T15:52:07.408Z,39.00
2018-02-08T15:54:36.317Z,40.10
2018-02-08T15:57:04.489Z,40.20
2018-02-08T15:59:32.685Z,42.20
2018-02-08T16:02:00.832Z,43.30
2018-02-08T16:04:28.984Z,43.90
2018-02-08T16:06:57.153Z,43.90
2018-02-08T16:09:25.347Z,45.10
2018-02-08T16:11:54.359Z,45.90
2018-02-08T16:14:23.412Z,45.60
2018-02-08T16:16:51.642Z,45.30
2018-02-08T16:19:20.504Z,46.90
2018-02-08T16:21:49.444Z,47.30
2018-02-08T16:24:18.162Z,47.50
2018-02-08T16:26:46.293Z,48.90
2018-02-08T16:29:15.009Z,50.60
2018-02-08T16:31:43.233Z,51.00
2018-02-08T16:34:12.248Z,52.60
2018-02-08T16:36:40.370Z,53.70
2018-02-08T16:39:09.272Z,56.60
2018-02-08T16:41:38.188Z,57.40
2018-02-08T16:44:06.350Z,57.00
2018-02-08T16:46:35.300Z,60.00
2018-02-08T16:49:03.433Z,60.30
2018-02-08T16:51:31.628Z,60.00
2018-02-08T16:53:59.828Z,60.20
2018-02-08T16:56:27.989Z,60.50
2018-02-08T16:58:56.188Z,59.10
2018-02-08T17:01:25.149Z,60.00
2018-02-08T17:03:53.273Z,59.80
2018-02-08T17:06:22.275Z,58.50
2018-02-08T17:08:50.504Z,58.40
2018-02-08T17:11:19.884Z,56.80
2018-02-08T17:13:48.158Z,55.60
2018-02-08T17:16:16.700Z,58.50
2018-02-08T17:18:45.603Z,57.30
2018-02-08T17:21:13.749Z,57.20
2018-02-08T17:23:41.872Z,57.00
2018-02-08T17:26:10.056Z,57.30
2018-02-08T17:28:38.268Z,57.70
2018-02-08T17:31:06.474Z,56.50
2018-02-08T17:33:34.652Z,56.90
2018-02-08T17:36:02.864Z,57.00
2018-02-08T17:38:31.072Z,56.90
2018-02-08T17:40:59.206Z,55.20
2018-02-08T17:43:27.365Z,55.60
2018-02-08T17:45:55.509Z,54.10
2018-02-08T17:48:24.448Z,55.70
2018-02-08T17:50:52.649Z,55.30
2018-02-08T17:53:21.485Z,54.70
2018-02-08T17:55:49.693Z,52.80
2018-02-08T17:58:17.902Z,53.00
2018-02-08T18:00:46.891Z,53.10
2018-02-08T18:03:15.833Z,53.90
2018-02-08T18:05:44.064Z,54.00
2018-02-08T18:08:12.551Z,53.10
2018-02-08T18:10:41.461Z,52.00
2018-02-08T18:13:10.194Z,52.20
2018-02-08T18:15:38.368Z,51.00
2018-02-08T18:18:06.937Z,51.40
2018-02-08T18:20:35.116Z,49.00
2018-02-08T18:23:03.251Z,50.80
2018-02-08T18:25:31.537Z,51.20
2018-02-08T18:27:59.688Z,51.60
2018-02-08T18:30:28.591Z,50.00
2018-02-08T18:32:56.832Z,51.50
2018-02-08T18:35:25.155Z,51.70
2018-02-08T18:37:53.906Z,53.20
2018-02-08T18:40:22.536Z,52.40
2018-02-08T18:42:50.681Z,57.00
2018-02-08T18:45:20.003Z,58.60
2018-02-08T18:47:48.124Z,59.70
2018-02-08T18:50:16.253Z,59.50
2018-02-08T18:52:44.421Z,58.70
2018-02-08T18:55:12.587Z,62.10
2018-02-08T18:57:40.781Z,63.10
2018-02-08T19:00:09.689Z,63.50
2018-02-08T19:02:37.844Z,62.60
2018-02-08T19:05:05.992Z,63.80
2018-02-08T19:07:34.897Z,64.80
2018-02-08T19:10:03.045Z,64.80
2018-02-08T19:12:31.956Z,65.70
2018-02-08T19:15:00.144Z,65.60
2018-02-08T19:17:28.272Z,67.00
2018-02-08T19:19:56.409Z,66.80
2018-02-08T19:22:24.673Z,65.50
2018-02-08T19:24:54.356Z,67.30
2018-02-08T19:27:23.390Z,67.50
2018-02-08T19:29:51.556Z,67.40
2018-02-08T19:32:19.684Z,67.20
2018-02-08T19:34:49.048Z,68.30
2018-02-08T19:37:17.532Z,67.80
2018-02-08T19:39:45.730Z,68.00
2018-02-08T19:42:13.897Z,67.00
2018-02-08T19:44:42.152Z,69.30
2018-02-08T19:47:10.639Z,69.10
2018-02-08T19:49:39.564Z,70.60
2018-02-08T19:52:08.464Z,71.10
2018-02-08T19:54:37.467Z,71.10
2018-02-08T19:57:06.737Z,71.00
2018-02-08T19:59:35.728Z,71.60
2018-02-08T20:02:03.951Z,72.20
2018-02-08T20:04:32.108Z,70.40
2018-02-08T20:07:00.252Z,72.70
2018-02-08T20:09:28.405Z,71.60
2018-02-08T20:11:56.745Z,73.00
2018-02-08T20:17:33.299Z,73.60
2018-02-08T20:20:01.472Z,73.60
2018-02-08T20:22:30.498Z,73.30
2018-02-08T20:25:00.276Z,73.10
2018-02-08T20:27:28.445Z,72.80
2018-02-08T20:29:56.616Z,73.60
2018-02-08T20:32:24.762Z,74.20
2018-02-08T20:34:52.908Z,73.40
2018-02-08T20:37:21.084Z,74.60
2018-02-08T20:39:49.398Z,74.70
2018-02-08T20:42:23.203Z,75.20
2018-02-08T20:44:52.004Z,75.00
2018-02-08T20:47:20.136Z,75.70
2018-02-08T20:49:53.944Z,75.20
2018-02-08T20:52:22.058Z,75.30
2018-02-08T20:54:50.646Z,74.90
2018-02-08T20:57:18.817Z,75.20
2018-02-08T20:59:46.951Z,75.50
2018-02-08T21:02:15.156Z,75.00
2018-02-08T21:04:43.300Z,75.20
2018-02-08T21:07:11.455Z,75.90
2018-02-08T21:09:39.814Z,75.20
2018-02-08T21:12:07.950Z,74.70
2018-02-08T21:14:36.087Z,74.10
2018-02-08T21:17:04.235Z,76.00
2018-02-08T21:19:33.206Z,77.30
2018-02-08T21:22:01.324Z,77.00
2018-02-08T21:24:29.570Z,77.10
2018-02-08T21:26:57.728Z,77.30
2018-02-08T21:29:26.554Z,76.50
2018-02-08T21:31:54.679Z,77.20
2018-02-08T21:34:22.877Z,76.90
2018-02-08T21:36:51.044Z,77.00
2018-02-08T21:39:19.221Z,78.00
2018-02-08T21:41:47.396Z,78.20
2018-02-08T21:44:15.580Z,78.20
2018-02-08T21:46:44.420Z,79.10
2018-02-08T21:49:12.588Z,79.80
2018-02-08T21:51:40.862Z,77.90
2018-02-08T21:54:09.701Z,79.20
2018-02-08T21:56:37.927Z,79.60
2018-02-08T21:59:06.100Z,79.70
2018-02-08T22:01:34.534Z,79.70
2018-02-08T22:04:02.673Z,79.50
2018-02-08T22:06:31.116Z,79.50
2018-02-08T22:09:01.063Z,80.10
2018-02-08T22:11:29.934Z,80.10
2018-02-08T22:13:58.078Z,80.60
2018-02-08T22:16:26.981Z,81.50
2018-02-08T22:18:55.885Z,81.90
2018-02-08T22:21:25.220Z,81.60
2018-02-08T22:23:53.373Z,81.70
2018-02-08T22:26:21.502Z,82.10
2018-02-08T22:28:49.633Z,81.80
2018-02-08T22:31:17.780Z,81.80
2018-02-08T22:33:46.271Z,82.00
2018-02-08T22:36:14.407Z,82.30
2018-02-08T22:38:42.554Z,82.20
2018-02-08T22:41:10.749Z,82.40
2018-02-08T22:43:38.932Z,82.90
2018-02-08T22:46:07.072Z,82.70
2018-02-08T22:48:35.212Z,83.20
2018-02-08T22:51:03.404Z,82.80
2018-02-08T22:53:32.300Z,82.80
2018-02-08T22:56:00.768Z,81.60
2018-02-08T22:58:28.974Z,83.30
2018-02-08T23:00:57.151Z,82.60
2018-02-08T23:06:28.032Z,82.80
2018-02-08T23:08:56.287Z,82.60
2018-02-08T23:11:24.416Z,82.70
2018-02-08T23:13:52.590Z,83.00
2018-02-08T23:16:21.506Z,82.50
2018-02-08T23:19:30.264Z,82.60
2018-02-08T23:21:57.548Z,83.00
2018-02-08T23:24:23.881Z,82.60
2018-02-08T23:26:51.057Z,82.80
2018-02-08T23:29:18.280Z,83.30
2018-02-08T23:31:44.683Z,83.20
2018-02-08T23:34:10.975Z,83.30
2018-02-08T23:36:38.503Z,83.40
2018-02-08T23:39:04.867Z,83.80
2018-02-08T23:41:31.881Z,83.70
2018-02-08T23:43:58.612Z,83.70
2018-02-08T23:46:24.992Z,83.80
2018-02-08T23:48:51.311Z,83.80
2018-02-08T23:51:17.683Z,84.30
2018-02-08T23:53:43.980Z,84.30
2018-02-08T23:56:10.277Z,84.40
2018-02-08T23:58:36.754Z,84.40
